sensor_id;sensor_type;location;lat;lon;timestamp;pressure;altitude;pressure_sealevel;temperature;humidity
21111;BME280;10713;51.912;4.494;2023-07-13T00:01:24;101332.06;;;19.07;100.00
21111;BME280;10713;51.912;4.494;2023-07-13T00:03:50;101327.69;;;19.06;100.00
21111;BME280;10713;51.912;4.494;2023-07-13T00:06:15;101333.88;;;19.06;100.00
21111;BME280;10713;51.912;4.494;2023-07-13T00:08:41;101328.75;;;19.03;100.00
21111;BME280;10713;51.912;4.494;2023-07-13T00:11:06;101318.53;;;18.96;100.00
21111;BME280;10713;51.912;4.494;2023-07-13T00:13:32;101322.28;;;18.93;100.00
21111;BME280;10713;51.912;4.494;2023-07-13T00:15:58;101324.31;;;18.89;100.00
21111;BME280;10713;51.912;4.494;2023-07-13T00:18:23;101330.22;;;18.95;100.00
21111;BME280;10713;51.912;4.494;2023-07-13T00:20:49;101328.38;;;18.95;100.00
21111;BME280;10713;51.912;4.494;2023-07-13T00:23:15;101335.44;;;18.96;100.00
21111;BME280;10713;51.912;4.494;2023-07-13T00:25:40;101331.63;;;19.00;100.00
21111;BME280;10713;51.912;4.494;2023-07-13T00:28:06;101336.84;;;19.02;100.00
21111;BME280;10713;51.912;4.494;2023-07-13T00:30:31;101341.66;;;18.97;100.00
21111;BME280;10713;51.912;4.494;2023-07-13T00:32:57;101332.88;;;18.95;100.00
21111;BME280;10713;51.912;4.494;2023-07-13T00:35:22;101336.50;;;18.94;100.00
21111;BME280;10713;51.912;4.494;2023-07-13T00:37:48;101332.69;;;18.98;100.00
21111;BME280;10713;51.912;4.494;2023-07-13T00:40:15;101321.84;;;18.99;100.00
21111;BME280;10713;51.912;4.494;2023-07-13T00:42:40;101331.72;;;18.99;100.00
21111;BME280;10713;51.912;4.494;2023-07-13T00:47:39;101332.31;;;18.89;100.00
21111;BME280;10713;51.912;4.494;2023-07-13T00:50:09;101335.94;;;18.88;100.00
21111;BME280;10713;51.912;4.494;2023-07-13T00:52:36;101339.03;;;18.82;100.00
21111;BME280;10713;51.912;4.494;2023-07-13T00:55:03;101331.16;;;18.66;100.00
21111;BME280;10713;51.912;4.494;2023-07-13T00:57:29;101336.41;;;18.54;100.00
21111;BME280;10713;51.912;4.494;2023-07-13T00:59:58;101333.22;;;18.49;100.00
21111;BME280;10713;51.912;4.494;2023-07-13T01:02:24;101330.03;;;18.42;100.00
21111;BME280;10713;51.912;4.494;2023-07-13T01:04:51;101331.97;;;18.40;100.00
21111;BME280;10713;51.912;4.494;2023-07-13T01:07:18;101340.16;;;18.37;100.00
21111;BME280;10713;51.912;4.494;2023-07-13T01:09:44;101350.13;;;18.35;100.00
21111;BME280;10713;51.912;4.494;2023-07-13T01:12:10;101346.69;;;18.33;100.00
21111;BME280;10713;51.912;4.494;2023-07-13T01:14:35;101348.50;;;18.32;100.00
21111;BME280;10713;51.912;4.494;2023-07-13T01:17:01;101351.94;;;18.34;100.00
21111;BME280;10713;51.912;4.494;2023-07-13T01:19:42;101353.53;;;18.37;100.00
21111;BME280;10713;51.912;4.494;2023-07-13T01:22:14;101357.44;;;18.31;100.00
21111;BME280;10713;51.912;4.494;2023-07-13T01:24:43;101356.22;;;18.37;100.00
21111;BME280;10713;51.912;4.494;2023-07-13T01:27:10;101356.53;;;18.32;100.00
21111;BME280;10713;51.912;4.494;2023-07-13T01:29:37;101361.38;;;18.26;100.00
21111;BME280;10713;51.912;4.494;2023-07-13T01:32:11;101352.13;;;18.17;100.00
21111;BME280;10713;51.912;4.494;2023-07-13T01:34:37;101356.81;;;18.13;100.00
21111;BME280;10713;51.912;4.494;2023-07-13T01:37:04;101357.00;;;18.10;100.00
21111;BME280;10713;51.912;4.494;2023-07-13T01:39:29;101354.25;;;18.12;100.00
21111;BME280;10713;51.912;4.494;2023-07-13T01:41:55;101355.97;;;18.13;100.00
21111;BME280;10713;51.912;4.494;2023-07-13T01:44:20;101354.53;;;18.07;100.00
21111;BME280;10713;51.912;4.494;2023-07-13T01:46:45;101363.72;;;18.03;100.00
21111;BME280;10713;51.912;4.494;2023-07-13T01:49:11;101361.22;;;18.00;100.00
21111;BME280;10713;51.912;4.494;2023-07-13T01:51:36;101362.28;;;17.97;100.00
21111;BME280;10713;51.912;4.494;2023-07-13T01:54:02;101363.31;;;17.95;100.00
21111;BME280;10713;51.912;4.494;2023-07-13T01:56:27;101364.25;;;17.94;100.00
21111;BME280;10713;51.912;4.494;2023-07-13T01:58:53;101366.84;;;17.95;100.00
21111;BME280;10713;51.912;4.494;2023-07-13T02:01:18;101362.16;;;17.99;100.00
21111;BME280;10713;51.912;4.494;2023-07-13T02:03:43;101365.88;;;17.96;100.00
21111;BME280;10713;51.912;4.494;2023-07-13T02:06:09;101368.84;;;17.92;100.00
21111;BME280;10713;51.912;4.494;2023-07-13T02:08:34;101369.78;;;17.91;100.00
21111;BME280;10713;51.912;4.494;2023-07-13T02:11:02;101368.84;;;17.92;100.00
21111;BME280;10713;51.912;4.494;2023-07-13T02:13:27;101370.56;;;17.93;100.00
21111;BME280;10713;51.912;4.494;2023-07-13T02:15:52;101366.84;;;17.95;100.00
21111;BME280;10713;51.912;4.494;2023-07-13T02:18:18;101370.38;;;17.96;100.00
21111;BME280;10713;51.912;4.494;2023-07-13T02:20:44;101367.69;;;17.96;100.00
21111;BME280;10713;51.912;4.494;2023-07-13T02:23:10;101369.69;;;18.07;100.00
21111;BME280;10713;51.912;4.494;2023-07-13T02:25:35;101369.59;;;18.08;100.00
21111;BME280;10713;51.912;4.494;2023-07-13T02:28:01;101370.81;;;17.88;100.00
21111;BME280;10713;51.912;4.494;2023-07-13T02:30:27;101377.50;;;17.81;100.00
21111;BME280;10713;51.912;4.494;2023-07-13T02:32:55;101368.81;;;17.77;100.00
21111;BME280;10713;51.912;4.494;2023-07-13T02:35:20;101374.16;;;17.77;100.00
21111;BME280;10713;51.912;4.494;2023-07-13T02:37:46;101378.28;;;17.83;100.00
21111;BME280;10713;51.912;4.494;2023-07-13T02:40:11;101381.81;;;17.84;100.00
21111;BME280;10713;51.912;4.494;2023-07-13T02:42:37;101371.78;;;17.87;100.00
21111;BME280;10713;51.912;4.494;2023-07-13T02:45:03;101377.13;;;17.87;100.00
21111;BME280;10713;51.912;4.494;2023-07-13T02:47:28;101376.09;;;17.90;100.00
21111;BME280;10713;51.912;4.494;2023-07-13T02:49:54;101373.41;;;17.90;100.00
21111;BME280;10713;51.912;4.494;2023-07-13T02:52:19;101384.19;;;17.88;100.00
21111;BME280;10713;51.912;4.494;2023-07-13T02:54:44;101381.34;;;17.91;100.00
21111;BME280;10713;51.912;4.494;2023-07-13T02:57:10;101379.34;;;17.95;100.00
21111;BME280;10713;51.912;4.494;2023-07-13T02:59:35;101384.75;;;17.93;100.00
21111;BME280;10713;51.912;4.494;2023-07-13T03:02:02;101383.25;;;17.89;100.00
21111;BME280;10713;51.912;4.494;2023-07-13T03:04:27;101384.69;;;17.95;100.00
21111;BME280;10713;51.912;4.494;2023-07-13T03:06:53;101381.81;;;17.98;100.00
21111;BME280;10713;51.912;4.494;2023-07-13T03:09:22;101386.19;;;17.99;100.00
21111;BME280;10713;51.912;4.494;2023-07-13T03:11:48;101386.69;;;18.06;100.00
21111;BME280;10713;51.912;4.494;2023-07-13T03:14:13;101387.94;;;18.00;100.00
21111;BME280;10713;51.912;4.494;2023-07-13T03:16:38;101387.44;;;17.93;100.00
21111;BME280;10713;51.912;4.494;2023-07-13T03:19:04;101388.41;;;17.92;100.00
21111;BME280;10713;51.912;4.494;2023-07-13T03:21:30;101390.97;;;17.94;100.00
21111;BME280;10713;51.912;4.494;2023-07-13T03:23:56;101395.94;;;17.86;100.00
21111;BME280;10713;51.912;4.494;2023-07-13T03:26:21;101395.06;;;17.85;100.00
21111;BME280;10713;51.912;4.494;2023-07-13T03:28:47;101396.09;;;17.83;100.00
21111;BME280;10713;51.912;4.494;2023-07-13T03:31:15;101392.44;;;17.69;100.00
21111;BME280;10713;51.912;4.494;2023-07-13T03:33:41;101394.78;;;17.60;100.00
21111;BME280;10713;51.912;4.494;2023-07-13T03:36:09;101390.59;;;17.55;100.00
21111;BME280;10713;51.912;4.494;2023-07-13T03:38:34;101394.97;;;17.56;100.00
21111;BME280;10713;51.912;4.494;2023-07-13T03:41:00;101407.19;;;17.61;100.00
21111;BME280;10713;51.912;4.494;2023-07-13T03:43:26;101398.91;;;17.65;100.00
21111;BME280;10713;51.912;4.494;2023-07-13T03:45:51;101402.34;;;17.67;100.00
21111;BME280;10713;51.912;4.494;2023-07-13T03:48:16;101414.66;;;17.70;100.00
21111;BME280;10713;51.912;4.494;2023-07-13T03:50:42;101410.94;;;17.72;100.00
21111;BME280;10713;51.912;4.494;2023-07-13T03:53:07;101417.91;;;17.75;100.00
21111;BME280;10713;51.912;4.494;2023-07-13T03:55:32;101410.59;;;17.78;100.00
21111;BME280;10713;51.912;4.494;2023-07-13T03:58:01;101411.78;;;17.89;100.00
21111;BME280;10713;51.912;4.494;2023-07-13T04:00:44;101416.53;;;17.98;100.00
21111;BME280;10713;51.912;4.494;2023-07-13T04:03:09;101414.16;;;18.08;100.00
21111;BME280;10713;51.912;4.494;2023-07-13T04:05:35;101412.44;;;18.07;100.00
21111;BME280;10713;51.912;4.494;2023-07-13T04:08:01;101418.91;;;18.02;100.00
21111;BME280;10713;51.912;4.494;2023-07-13T04:10:26;101427.13;;;18.14;100.00
21111;BME280;10713;51.912;4.494;2023-07-13T04:12:51;101430.69;;;18.29;100.00
21111;BME280;10713;51.912;4.494;2023-07-13T04:15:17;101419.81;;;18.46;100.00
21111;BME280;10713;51.912;4.494;2023-07-13T04:17:42;101425.31;;;18.86;100.00
21111;BME280;10713;51.912;4.494;2023-07-13T04:20:08;101427.91;;;19.27;100.00
21111;BME280;10713;51.912;4.494;2023-07-13T04:22:33;101419.97;;;19.53;100.00
21111;BME280;10713;51.912;4.494;2023-07-13T04:24:58;101423.91;;;19.47;100.00
21111;BME280;10713;51.912;4.494;2023-07-13T04:27:24;101425.09;;;19.43;100.00
21111;BME280;10713;51.912;4.494;2023-07-13T04:29:49;101421.25;;;19.60;100.00
21111;BME280;10713;51.912;4.494;2023-07-13T04:32:14;101424.22;;;19.95;100.00
21111;BME280;10713;51.912;4.494;2023-07-13T04:34:40;101431.63;;;20.17;100.00
21111;BME280;10713;51.912;4.494;2023-07-13T04:37:05;101427.34;;;20.15;100.00
21111;BME280;10713;51.912;4.494;2023-07-13T04:39:30;101422.81;;;19.90;100.00
21111;BME280;10713;51.912;4.494;2023-07-13T04:41:56;101441.25;;;19.69;100.00
21111;BME280;10713;51.912;4.494;2023-07-13T04:44:21;101435.59;;;19.59;100.00
21111;BME280;10713;51.912;4.494;2023-07-13T04:46:46;101439.47;;;19.55;100.00
21111;BME280;10713;51.912;4.494;2023-07-13T04:49:12;101436.63;;;19.71;100.00
21111;BME280;10713;51.912;4.494;2023-07-13T04:51:37;101435.16;;;20.18;100.00
21111;BME280;10713;51.912;4.494;2023-07-13T04:54:03;101436.53;;;20.62;100.00
21111;BME280;10713;51.912;4.494;2023-07-13T04:56:30;101425.78;;;20.75;100.00
21111;BME280;10713;51.912;4.494;2023-07-13T04:58:55;101436.13;;;20.55;100.00
21111;BME280;10713;51.912;4.494;2023-07-13T05:01:21;101440.16;;;20.48;100.00
21111;BME280;10713;51.912;4.494;2023-07-13T05:03:46;101441.25;;;20.58;100.00
21111;BME280;10713;51.912;4.494;2023-07-13T05:06:11;101444.56;;;20.49;100.00
21111;BME280;10713;51.912;4.494;2023-07-13T05:08:37;101443.19;;;20.31;100.00
21111;BME280;10713;51.912;4.494;2023-07-13T05:11:03;101454.56;;;20.21;100.00
21111;BME280;10713;51.912;4.494;2023-07-13T05:13:29;101446.09;;;20.15;100.00
21111;BME280;10713;51.912;4.494;2023-07-13T05:16:03;101447.59;;;20.06;100.00
21111;BME280;10713;51.912;4.494;2023-07-13T05:18:29;101442.97;;;19.95;100.00
21111;BME280;10713;51.912;4.494;2023-07-13T05:23:24;101450.91;;;19.84;100.00
21111;BME280;10713;51.912;4.494;2023-07-13T05:25:49;101458.72;;;19.74;100.00
21111;BME280;10713;51.912;4.494;2023-07-13T05:28:15;101457.31;;;19.69;100.00
21111;BME280;10713;51.912;4.494;2023-07-13T05:30:45;101458.72;;;19.74;100.00
21111;BME280;10713;51.912;4.494;2023-07-13T05:33:11;101464.16;;;19.86;100.00
21111;BME280;10713;51.912;4.494;2023-07-13T05:35:36;101468.03;;;19.82;100.00
21111;BME280;10713;51.912;4.494;2023-07-13T05:38:01;101466.56;;;19.90;100.00
21111;BME280;10713;51.912;4.494;2023-07-13T05:40:27;101477.91;;;19.94;100.00
21111;BME280;10713;51.912;4.494;2023-07-13T05:42:52;101484.66;;;19.87;100.00
21111;BME280;10713;51.912;4.494;2023-07-13T05:45:17;101496.91;;;19.64;100.00
21111;BME280;10713;51.912;4.494;2023-07-13T05:47:43;101509.09;;;19.55;100.00
21111;BME280;10713;51.912;4.494;2023-07-13T05:50:08;101492.41;;;19.37;100.00
21111;BME280;10713;51.912;4.494;2023-07-13T05:52:34;101503.28;;;19.21;100.00
21111;BME280;10713;51.912;4.494;2023-07-13T05:54:59;101492.34;;;18.97;100.00
21111;BME280;10713;51.912;4.494;2023-07-13T05:57:24;101500.41;;;18.83;100.00
21111;BME280;10713;51.912;4.494;2023-07-13T05:59:50;101527.84;;;18.71;100.00
21111;BME280;10713;51.912;4.494;2023-07-13T06:02:15;101516.03;;;18.46;100.00
21111;BME280;10713;51.912;4.494;2023-07-13T06:04:40;101515.31;;;18.28;100.00
21111;BME280;10713;51.912;4.494;2023-07-13T06:07:06;101512.28;;;18.20;100.00
21111;BME280;10713;51.912;4.494;2023-07-13T06:09:32;101496.31;;;18.04;100.00
21111;BME280;10713;51.912;4.494;2023-07-13T06:11:57;101520.13;;;17.31;100.00
21111;BME280;10713;51.912;4.494;2023-07-13T06:14:22;101536.03;;;17.17;100.00
21111;BME280;10713;51.912;4.494;2023-07-13T06:16:48;101531.16;;;17.09;100.00
21111;BME280;10713;51.912;4.494;2023-07-13T06:19:13;101560.50;;;17.09;100.00
21111;BME280;10713;51.912;4.494;2023-07-13T06:21:38;101541.22;;;17.04;100.00
21111;BME280;10713;51.912;4.494;2023-07-13T06:24:04;101541.81;;;17.09;100.00
21111;BME280;10713;51.912;4.494;2023-07-13T06:26:29;101541.78;;;16.93;100.00
21111;BME280;10713;51.912;4.494;2023-07-13T06:28:54;101548.66;;;16.81;100.00
21111;BME280;10713;51.912;4.494;2023-07-13T06:31:20;101557.03;;;16.74;100.00
21111;BME280;10713;51.912;4.494;2023-07-13T06:33:45;101542.81;;;16.57;100.00
21111;BME280;10713;51.912;4.494;2023-07-13T06:36:11;101560.75;;;16.54;100.00
21111;BME280;10713;51.912;4.494;2023-07-13T06:38:37;101562.47;;;16.72;100.00
21111;BME280;10713;51.912;4.494;2023-07-13T06:41:04;101560.56;;;16.92;100.00
21111;BME280;10713;51.912;4.494;2023-07-13T06:43:29;101552.72;;;17.04;100.00
21111;BME280;10713;51.912;4.494;2023-07-13T06:45:57;101549.72;;;17.10;100.00
21111;BME280;10713;51.912;4.494;2023-07-13T06:48:22;101552.94;;;17.17;100.00
21111;BME280;10713;51.912;4.494;2023-07-13T06:50:49;101559.66;;;17.40;100.00
21111;BME280;10713;51.912;4.494;2023-07-13T06:53:15;101565.63;;;17.60;100.00
21111;BME280;10713;51.912;4.494;2023-07-13T06:55:43;101565.47;;;17.78;100.00
21111;BME280;10713;51.912;4.494;2023-07-13T06:58:09;101561.34;;;17.89;100.00
21111;BME280;10713;51.912;4.494;2023-07-13T07:00:34;101562.44;;;18.00;100.00
21111;BME280;10713;51.912;4.494;2023-07-13T07:02:59;101574.44;;;18.08;100.00
21111;BME280;10713;51.912;4.494;2023-07-13T07:05:25;101576.75;;;18.14;100.00
21111;BME280;10713;51.912;4.494;2023-07-13T07:07:51;101573.03;;;18.16;100.00
21111;BME280;10713;51.912;4.494;2023-07-13T07:10:18;101577.34;;;18.19;100.00
21111;BME280;10713;51.912;4.494;2023-07-13T07:12:44;101575.72;;;18.16;100.00
21111;BME280;10713;51.912;4.494;2023-07-13T07:15:10;101592.72;;;18.15;100.00
21111;BME280;10713;51.912;4.494;2023-07-13T07:17:35;101591.75;;;18.16;100.00
21111;BME280;10713;51.912;4.494;2023-07-13T07:20:01;101589.44;;;18.10;100.00
21111;BME280;10713;51.912;4.494;2023-07-13T07:22:28;101588.97;;;17.88;100.00
21111;BME280;10713;51.912;4.494;2023-07-13T07:24:55;101586.84;;;17.78;100.00
21111;BME280;10713;51.912;4.494;2023-07-13T07:27:21;101593.91;;;17.64;100.00
21111;BME280;10713;51.912;4.494;2023-07-13T07:29:47;101593.53;;;17.54;100.00
21111;BME280;10713;51.912;4.494;2023-07-13T07:32:12;101604.75;;;17.61;100.00
21111;BME280;10713;51.912;4.494;2023-07-13T07:34:38;101600.59;;;17.71;100.00
21111;BME280;10713;51.912;4.494;2023-07-13T07:37:03;101590.44;;;17.93;100.00
21111;BME280;10713;51.912;4.494;2023-07-13T07:39:29;101590.94;;;18.30;100.00
21111;BME280;10713;51.912;4.494;2023-07-13T07:41:54;101591.69;;;19.61;100.00
21111;BME280;10713;51.912;4.494;2023-07-13T07:44:20;101595.06;;;20.32;100.00
21111;BME280;10713;51.912;4.494;2023-07-13T07:46:46;101597.25;;;20.78;100.00
21111;BME280;10713;51.912;4.494;2023-07-13T07:49:11;101600.47;;;21.82;100.00
21111;BME280;10713;51.912;4.494;2023-07-13T07:51:37;101589.66;;;23.10;100.00
21111;BME280;10713;51.912;4.494;2023-07-13T07:54:03;101595.88;;;24.41;100.00
21111;BME280;10713;51.912;4.494;2023-07-13T07:56:29;101583.50;;;25.61;100.00
21111;BME280;10713;51.912;4.494;2023-07-13T07:58:54;101566.72;;;25.97;100.00
21111;BME280;10713;51.912;4.494;2023-07-13T08:01:20;101596.38;;;26.74;100.00
21111;BME280;10713;51.912;4.494;2023-07-13T08:03:45;101594.91;;;26.33;100.00
21111;BME280;10713;51.912;4.494;2023-07-13T08:06:11;101584.16;;;25.44;100.00
21111;BME280;10713;51.912;4.494;2023-07-13T08:08:36;101589.25;;;24.45;100.00
21111;BME280;10713;51.912;4.494;2023-07-13T08:11:06;101592.91;;;23.59;100.00
21111;BME280;10713;51.912;4.494;2023-07-13T08:13:32;101603.75;;;23.03;100.00
21111;BME280;10713;51.912;4.494;2023-07-13T08:15:58;101596.97;;;22.52;100.00
21111;BME280;10713;51.912;4.494;2023-07-13T08:18:24;101596.84;;;22.18;100.00
21111;BME280;10713;51.912;4.494;2023-07-13T08:20:49;101597.34;;;21.99;100.00
21111;BME280;10713;51.912;4.494;2023-07-13T08:23:14;101595.31;;;22.14;100.00
21111;BME280;10713;51.912;4.494;2023-07-13T08:25:42;101590.72;;;23.53;100.00
21111;BME280;10713;51.912;4.494;2023-07-13T08:28:07;101593.91;;;24.95;100.00
21111;BME280;10713;51.912;4.494;2023-07-13T08:30:33;101592.13;;;25.36;100.00
21111;BME280;10713;51.912;4.494;2023-07-13T08:32:58;101595.63;;;26.06;100.00
21111;BME280;10713;51.912;4.494;2023-07-13T08:35:23;101584.28;;;26.79;100.00
21111;BME280;10713;51.912;4.494;2023-07-13T08:37:51;101603.53;;;26.66;100.00
21111;BME280;10713;51.912;4.494;2023-07-13T08:40:18;101591.22;;;26.05;100.00
21111;BME280;10713;51.912;4.494;2023-07-13T08:42:46;101585.44;;;25.40;100.00
21111;BME280;10713;51.912;4.494;2023-07-13T08:45:32;101602.41;;;24.60;100.00
21111;BME280;10713;51.912;4.494;2023-07-13T08:48:09;101602.03;;;24.11;100.00
21111;BME280;10713;51.912;4.494;2023-07-13T08:50:48;101596.59;;;24.85;100.00
21111;BME280;10713;51.912;4.494;2023-07-13T08:53:16;101586.19;;;25.81;100.00
21111;BME280;10713;51.912;4.494;2023-07-13T08:55:42;101568.38;;;26.56;100.00
21111;BME280;10713;51.912;4.494;2023-07-13T08:58:15;101567.72;;;26.82;100.00
21111;BME280;10713;51.912;4.494;2023-07-13T09:00:50;101575.22;;;26.41;100.00
21111;BME280;10713;51.912;4.494;2023-07-13T09:03:25;101590.72;;;25.51;100.00
21111;BME280;10713;51.912;4.494;2023-07-13T09:05:58;101594.97;;;24.73;100.00
21111;BME280;10713;51.912;4.494;2023-07-13T09:11:33;101583.56;;;23.74;100.00
21111;BME280;10713;51.912;4.494;2023-07-13T09:16:46;101597.25;;;23.05;100.00
21111;BME280;10713;51.912;4.494;2023-07-13T09:19:22;101598.09;;;22.72;100.00
21111;BME280;10713;51.912;4.494;2023-07-13T09:21:51;101597.38;;;22.35;100.00
21111;BME280;10713;51.912;4.494;2023-07-13T09:27:28;101613.34;;;21.90;100.00
21111;BME280;10713;51.912;4.494;2023-07-13T09:30:27;101604.91;;;21.94;100.00
21111;BME280;10713;51.912;4.494;2023-07-13T09:32:47;101596.50;;;22.69;100.00
21111;BME280;10713;51.912;4.494;2023-07-13T09:35:17;101592.91;;;23.70;100.00
21111;BME280;10713;51.912;4.494;2023-07-13T09:37:45;101590.09;;;24.46;100.00
21111;BME280;10713;51.912;4.494;2023-07-13T09:40:28;101584.56;;;25.30;100.00
21111;BME280;10713;51.912;4.494;2023-07-13T09:42:56;101586.31;;;25.60;100.00
21111;BME280;10713;51.912;4.494;2023-07-13T09:45:27;101590.03;;;25.59;100.00
21111;BME280;10713;51.912;4.494;2023-07-13T09:48:14;101582.19;;;25.75;100.00
21111;BME280;10713;51.912;4.494;2023-07-13T09:50:41;101585.53;;;25.98;100.00
21111;BME280;10713;51.912;4.494;2023-07-13T09:53:17;101593.22;;;25.93;100.00
21111;BME280;10713;51.912;4.494;2023-07-13T09:55:46;101604.84;;;25.65;100.00
21111;BME280;10713;51.912;4.494;2023-07-13T09:58:23;101612.09;;;25.24;100.00
21111;BME280;10713;51.912;4.494;2023-07-13T10:00:58;101600.16;;;25.26;100.00
21111;BME280;10713;51.912;4.494;2023-07-13T10:03:27;101610.28;;;25.24;100.00
21111;BME280;10713;51.912;4.494;2023-07-13T10:05:53;101612.56;;;24.98;100.00
21111;BME280;10713;51.912;4.494;2023-07-13T10:08:27;101615.97;;;24.48;100.00
21111;BME280;10713;51.912;4.494;2023-07-13T10:13:43;101611.00;;;24.44;100.00
21111;BME280;10713;51.912;4.494;2023-07-13T10:16:09;101618.97;;;24.34;100.00
21111;BME280;10713;51.912;4.494;2023-07-13T10:18:50;101613.09;;;24.08;100.00
21111;BME280;10713;51.912;4.494;2023-07-13T10:21:19;101620.59;;;24.04;100.00
21111;BME280;10713;51.912;4.494;2023-07-13T10:23:50;101623.75;;;24.10;100.00
21111;BME280;10713;51.912;4.494;2023-07-13T10:26:29;101626.75;;;23.95;100.00
21111;BME280;10713;51.912;4.494;2023-07-13T10:28:59;101633.00;;;23.96;100.00
21111;BME280;10713;51.912;4.494;2023-07-13T10:31:26;101621.22;;;24.71;100.00
21111;BME280;10713;51.912;4.494;2023-07-13T10:33:52;101623.09;;;25.32;100.00
21111;BME280;10713;51.912;4.494;2023-07-13T10:36:45;101616.84;;;26.11;100.00
21111;BME280;10713;51.912;4.494;2023-07-13T10:39:23;101609.41;;;26.32;100.00
21111;BME280;10713;51.912;4.494;2023-07-13T10:41:54;101620.38;;;26.60;100.00
21111;BME280;10713;51.912;4.494;2023-07-13T10:44:31;101619.50;;;26.69;100.00
21111;BME280;10713;51.912;4.494;2023-07-13T10:47:03;101611.25;;;26.61;100.00
21111;BME280;10713;51.912;4.494;2023-07-13T10:49:32;101609.34;;;26.81;100.00
21111;BME280;10713;51.912;4.494;2023-07-13T10:51:58;101614.63;;;26.82;100.00
21111;BME280;10713;51.912;4.494;2023-07-13T10:54:31;101619.88;;;26.84;100.00
21111;BME280;10713;51.912;4.494;2023-07-13T10:57:20;101621.31;;;27.25;100.00
21111;BME280;10713;51.912;4.494;2023-07-13T11:00:16;101616.06;;;27.14;100.00
21111;BME280;10713;51.912;4.494;2023-07-13T11:02:42;101625.38;;;27.02;100.00
21111;BME280;10713;51.912;4.494;2023-07-13T11:07:54;101619.38;;;26.98;100.00
21111;BME280;10713;51.912;4.494;2023-07-13T11:18:53;101636.78;;;26.00;100.00
21111;BME280;10713;51.912;4.494;2023-07-13T11:21:33;101636.56;;;25.72;100.00
21111;BME280;10713;51.912;4.494;2023-07-13T11:26:43;101620.69;;;25.89;100.00
21111;BME280;10713;51.912;4.494;2023-07-13T11:31:54;101624.03;;;25.71;100.00
21111;BME280;10713;51.912;4.494;2023-07-13T11:34:38;101626.16;;;25.58;100.00
21111;BME280;10713;51.912;4.494;2023-07-13T11:37:10;101630.13;;;25.63;100.00
21111;BME280;10713;51.912;4.494;2023-07-13T11:39:42;101623.06;;;25.82;100.00
21111;BME280;10713;51.912;4.494;2023-07-13T11:42:12;101628.53;;;26.11;100.00
21111;BME280;10713;51.912;4.494;2023-07-13T11:44:43;101634.38;;;26.16;100.00
21111;BME280;10713;51.912;4.494;2023-07-13T11:47:17;101630.06;;;26.04;100.00
21111;BME280;10713;51.912;4.494;2023-07-13T11:49:48;101629.50;;;26.00;100.00
21111;BME280;10713;51.912;4.494;2023-07-13T11:52:16;101633.88;;;25.82;100.00
21111;BME280;10713;51.912;4.494;2023-07-13T11:54:49;101633.28;;;25.59;100.00
21111;BME280;10713;51.912;4.494;2023-07-13T11:59:51;101629.31;;;25.73;100.00
21111;BME280;10713;51.912;4.494;2023-07-13T12:02:28;101636.56;;;25.72;100.00
21111;BME280;10713;51.912;4.494;2023-07-13T12:04:54;101640.22;;;25.52;100.00
21111;BME280;10713;51.912;4.494;2023-07-13T12:07:20;101626.84;;;25.50;100.00
21111;BME280;10713;51.912;4.494;2023-07-13T12:09:45;101630.41;;;25.41;100.00
21111;BME280;10713;51.912;4.494;2023-07-13T12:12:20;101628.22;;;25.35;100.00
21111;BME280;10713;51.912;4.494;2023-07-13T12:14:46;101633.72;;;25.64;100.00
21111;BME280;10713;51.912;4.494;2023-07-13T12:17:18;101621.63;;;25.78;100.00
21111;BME280;10713;51.912;4.494;2023-07-13T12:19:44;101631.09;;;25.93;100.00
21111;BME280;10713;51.912;4.494;2023-07-13T12:22:12;101630.94;;;26.04;100.00
21111;BME280;10713;51.912;4.494;2023-07-13T12:24:40;101634.47;;;25.95;100.00
21111;BME280;10713;51.912;4.494;2023-07-13T12:27:05;101631.22;;;25.92;100.00
21111;BME280;10713;51.912;4.494;2023-07-13T12:29:32;101638.13;;;25.65;100.00
21111;BME280;10713;51.912;4.494;2023-07-13T12:31:58;101633.84;;;25.62;100.00
21111;BME280;10713;51.912;4.494;2023-07-13T12:34:26;101626.91;;;25.70;100.00
21111;BME280;10713;51.912;4.494;2023-07-13T12:36:54;101636.97;;;25.58;100.00
21111;BME280;10713;51.912;4.494;2023-07-13T12:39:21;101632.09;;;25.42;100.00
21111;BME280;10713;51.912;4.494;2023-07-13T12:41:49;101632.09;;;25.42;100.00
21111;BME280;10713;51.912;4.494;2023-07-13T12:44:18;101638.72;;;25.28;100.00
21111;BME280;10713;51.912;4.494;2023-07-13T12:47:04;101624.38;;;25.28;100.00
21111;BME280;10713;51.912;4.494;2023-07-13T12:49:40;101630.66;;;25.38;100.00
21111;BME280;10713;51.912;4.494;2023-07-13T12:52:15;101634.88;;;25.21;100.00
21111;BME280;10713;51.912;4.494;2023-07-13T12:54:41;101630.00;;;25.15;100.00
21111;BME280;10713;51.912;4.494;2023-07-13T12:57:13;101628.50;;;25.01;100.00
21111;BME280;10713;51.912;4.494;2023-07-13T12:59:41;101633.00;;;24.91;100.00
21111;BME280;10713;51.912;4.494;2023-07-13T13:02:29;101622.47;;;24.88;100.00
21111;BME280;10713;51.912;4.494;2023-07-13T13:04:56;101639.22;;;24.82;100.00
21111;BME280;10713;51.912;4.494;2023-07-13T13:07:23;101638.28;;;24.92;100.00
21111;BME280;10713;51.912;4.494;2023-07-13T13:09:48;101650.91;;;24.92;100.00
21111;BME280;10713;51.912;4.494;2023-07-13T13:12:14;101649.06;;;24.92;100.00
21111;BME280;10713;51.912;4.494;2023-07-13T13:14:40;101652.56;;;24.83;100.00
21111;BME280;10713;51.912;4.494;2023-07-13T13:17:18;101649.66;;;24.75;100.00
21111;BME280;10713;51.912;4.494;2023-07-13T13:19:45;101658.28;;;24.69;100.00